sensor_id;sensor_type;location;lat;lon;timestamp;temperature;humidity
78028;DHT22;67235;45.638;11.714;2023-05-07T00:00:18;16.60;72.40
78028;DHT22;67235;45.638;11.714;2023-05-07T00:02:45;16.60;71.80
78028;DHT22;67235;45.638;11.714;2023-05-07T00:05:11;16.60;71.70
78028;DHT22;67235;45.638;11.714;2023-05-07T00:07:37;16.40;71.90
78028;DHT22;67235;45.638;11.714;2023-05-07T00:10:04;16.40;72.30
78028;DHT22;67235;45.638;11.714;2023-05-07T00:12:31;16.40;72.50
78028;DHT22;67235;45.638;11.714;2023-05-07T00:15:02;16.30;72.60
78028;DHT22;67235;45.638;11.714;2023-05-07T00:17:29;16.40;72.70
78028;DHT22;67235;45.638;11.714;2023-05-07T00:19:55;16.30;72.60
78028;DHT22;67235;45.638;11.714;2023-05-07T00:22:21;16.30;72.70
78028;DHT22;67235;45.638;11.714;2023-05-07T00:24:47;16.30;72.40
78028;DHT22;67235;45.638;11.714;2023-05-07T00:27:13;16.30;72.70
78028;DHT22;67235;45.638;11.714;2023-05-07T00:29:39;16.30;73.00
78028;DHT22;67235;45.638;11.714;2023-05-07T00:32:05;16.30;73.00
78028;DHT22;67235;45.638;11.714;2023-05-07T00:34:30;16.30;72.80
78028;DHT22;67235;45.638;11.714;2023-05-07T00:36:56;16.30;73.20
78028;DHT22;67235;45.638;11.714;2023-05-07T00:39:22;16.30;73.50
78028;DHT22;67235;45.638;11.714;2023-05-07T00:41:48;16.30;73.40
78028;DHT22;67235;45.638;11.714;2023-05-07T00:44:14;16.40;72.90
78028;DHT22;67235;45.638;11.714;2023-05-07T00:46:40;16.40;72.50
78028;DHT22;67235;45.638;11.714;2023-05-07T00:49:07;16.40;72.80
78028;DHT22;67235;45.638;11.714;2023-05-07T00:51:33;16.40;73.30
78028;DHT22;67235;45.638;11.714;2023-05-07T00:54:02;16.40;73.70
78028;DHT22;67235;45.638;11.714;2023-05-07T00:56:28;16.40;74.10
78028;DHT22;67235;45.638;11.714;2023-05-07T00:58:54;16.50;73.90
78028;DHT22;67235;45.638;11.714;2023-05-07T01:01:20;16.50;73.90
78028;DHT22;67235;45.638;11.714;2023-05-07T01:03:46;16.50;73.70
78028;DHT22;67235;45.638;11.714;2023-05-07T01:09:17;16.40;72.70
78028;DHT22;67235;45.638;11.714;2023-05-07T01:11:50;16.20;73.20
78028;DHT22;67235;45.638;11.714;2023-05-07T01:14:31;16.30;73.20
78028;DHT22;67235;45.638;11.714;2023-05-07T01:17:18;16.30;73.20
78028;DHT22;67235;45.638;11.714;2023-05-07T01:19:57;16.30;72.80
78028;DHT22;67235;45.638;11.714;2023-05-07T01:22:53;16.30;73.00
78028;DHT22;67235;45.638;11.714;2023-05-07T01:25:27;16.20;73.30
78028;DHT22;67235;45.638;11.714;2023-05-07T01:28:02;16.30;73.70
78028;DHT22;67235;45.638;11.714;2023-05-07T01:30:38;16.20;73.40
78028;DHT22;67235;45.638;11.714;2023-05-07T01:33:28;16.30;73.30
78028;DHT22;67235;45.638;11.714;2023-05-07T01:36:20;16.20;73.30
78028;DHT22;67235;45.638;11.714;2023-05-07T01:38:54;16.10;73.00
78028;DHT22;67235;45.638;11.714;2023-05-07T01:41:25;16.00;73.40
78028;DHT22;67235;45.638;11.714;2023-05-07T01:43:54;16.00;73.10
78028;DHT22;67235;45.638;11.714;2023-05-07T01:46:49;16.10;73.50
78028;DHT22;67235;45.638;11.714;2023-05-07T01:49:17;16.10;73.70
78028;DHT22;67235;45.638;11.714;2023-05-07T01:51:47;16.00;73.50
78028;DHT22;67235;45.638;11.714;2023-05-07T01:54:25;16.10;73.50
78028;DHT22;67235;45.638;11.714;2023-05-07T01:57:00;16.10;73.50
78028;DHT22;67235;45.638;11.714;2023-05-07T01:59:38;16.10;74.00
78028;DHT22;67235;45.638;11.714;2023-05-07T02:02:21;16.00;74.10
78028;DHT22;67235;45.638;11.714;2023-05-07T02:05:01;16.10;73.90
78028;DHT22;67235;45.638;11.714;2023-05-07T02:07:47;16.10;74.40
78028;DHT22;67235;45.638;11.714;2023-05-07T02:10:41;16.20;74.30
78028;DHT22;67235;45.638;11.714;2023-05-07T02:13:15;16.10;74.10
78028;DHT22;67235;45.638;11.714;2023-05-07T02:16:00;16.00;73.80
78028;DHT22;67235;45.638;11.714;2023-05-07T02:18:49;16.00;73.90
78028;DHT22;67235;45.638;11.714;2023-05-07T02:21:18;15.90;73.30
78028;DHT22;67235;45.638;11.714;2023-05-07T02:24:10;16.00;73.20
78028;DHT22;67235;45.638;11.714;2023-05-07T02:26:41;15.90;73.70
78028;DHT22;67235;45.638;11.714;2023-05-07T02:29:12;15.80;74.10
78028;DHT22;67235;45.638;11.714;2023-05-07T02:31:38;15.70;73.80
78028;DHT22;67235;45.638;11.714;2023-05-07T02:34:10;15.70;74.40
78028;DHT22;67235;45.638;11.714;2023-05-07T02:36:39;15.70;74.70
78028;DHT22;67235;45.638;11.714;2023-05-07T02:39:31;15.60;74.40
78028;DHT22;67235;45.638;11.714;2023-05-07T02:42:01;15.70;74.70
78028;DHT22;67235;45.638;11.714;2023-05-07T02:44:32;15.80;74.60
78028;DHT22;67235;45.638;11.714;2023-05-07T02:47:07;15.80;74.20
78028;DHT22;67235;45.638;11.714;2023-05-07T02:49:40;15.70;73.70
78028;DHT22;67235;45.638;11.714;2023-05-07T02:52:32;15.70;73.90
78028;DHT22;67235;45.638;11.714;2023-05-07T02:55:00;15.70;74.00
78028;DHT22;67235;45.638;11.714;2023-05-07T02:57:32;15.60;74.20
78028;DHT22;67235;45.638;11.714;2023-05-07T03:00:18;15.60;74.00
78028;DHT22;67235;45.638;11.714;2023-05-07T03:02:55;15.60;73.80
78028;DHT22;67235;45.638;11.714;2023-05-07T03:05:32;15.60;74.40
78028;DHT22;67235;45.638;11.714;2023-05-07T03:08:04;15.60;74.80
78028;DHT22;67235;45.638;11.714;2023-05-07T03:10:30;15.40;74.30
78028;DHT22;67235;45.638;11.714;2023-05-07T03:13:17;15.50;74.20
78028;DHT22;67235;45.638;11.714;2023-05-07T03:15:47;15.60;74.10
78028;DHT22;67235;45.638;11.714;2023-05-07T03:18:15;15.60;74.40
78028;DHT22;67235;45.638;11.714;2023-05-07T03:20:45;15.70;74.50
78028;DHT22;67235;45.638;11.714;2023-05-07T03:23:15;15.50;73.70
78028;DHT22;67235;45.638;11.714;2023-05-07T03:25:45;15.50;74.00
78028;DHT22;67235;45.638;11.714;2023-05-07T03:28:12;15.60;73.90
78028;DHT22;67235;45.638;11.714;2023-05-07T03:30:42;15.40;73.40
78028;DHT22;67235;45.638;11.714;2023-05-07T03:33:08;15.30;74.80
78028;DHT22;67235;45.638;11.714;2023-05-07T03:35:39;15.30;75.00
78028;DHT22;67235;45.638;11.714;2023-05-07T03:38:09;15.40;75.30
78028;DHT22;67235;45.638;11.714;2023-05-07T03:40:36;15.30;75.60
78028;DHT22;67235;45.638;11.714;2023-05-07T03:43:02;15.40;75.70
78028;DHT22;67235;45.638;11.714;2023-05-07T03:45:30;15.30;75.20
78028;DHT22;67235;45.638;11.714;2023-05-07T03:47:58;15.40;75.40
78028;DHT22;67235;45.638;11.714;2023-05-07T03:50:26;15.40;75.00
78028;DHT22;67235;45.638;11.714;2023-05-07T03:52:59;15.40;74.80
78028;DHT22;67235;45.638;11.714;2023-05-07T03:55:37;15.40;74.80
78028;DHT22;67235;45.638;11.714;2023-05-07T03:58:02;15.30;75.20
78028;DHT22;67235;45.638;11.714;2023-05-07T04:00:41;15.40;74.90
78028;DHT22;67235;45.638;11.714;2023-05-07T04:03:12;15.30;75.00
78028;DHT22;67235;45.638;11.714;2023-05-07T04:05:41;15.40;75.20
78028;DHT22;67235;45.638;11.714;2023-05-07T04:08:09;15.40;74.80
78028;DHT22;67235;45.638;11.714;2023-05-07T04:10:37;15.40;73.50
78028;DHT22;67235;45.638;11.714;2023-05-07T04:13:10;15.50;73.70
78028;DHT22;67235;45.638;11.714;2023-05-07T04:15:37;15.50;73.90
78028;DHT22;67235;45.638;11.714;2023-05-07T04:18:08;15.50;73.10
78028;DHT22;67235;45.638;11.714;2023-05-07T04:20:34;15.50;73.60
78028;DHT22;67235;45.638;11.714;2023-05-07T04:23:10;15.50;73.80
78028;DHT22;67235;45.638;11.714;2023-05-07T04:25:37;15.60;73.40
78028;DHT22;67235;45.638;11.714;2023-05-07T04:28:04;15.80;72.70
78028;DHT22;67235;45.638;11.714;2023-05-07T04:30:40;16.40;72.20
78028;DHT22;67235;45.638;11.714;2023-05-07T04:33:14;16.90;70.90
78028;DHT22;67235;45.638;11.714;2023-05-07T04:35:43;17.20;70.70
78028;DHT22;67235;45.638;11.714;2023-05-07T04:38:22;17.50;70.40
78028;DHT22;67235;45.638;11.714;2023-05-07T04:41:12;17.60;70.50
78028;DHT22;67235;45.638;11.714;2023-05-07T04:43:44;17.60;70.70
78028;DHT22;67235;45.638;11.714;2023-05-07T04:46:26;17.40;71.20
78028;DHT22;67235;45.638;11.714;2023-05-07T04:48:53;17.10;71.70
78028;DHT22;67235;45.638;11.714;2023-05-07T04:51:20;16.90;71.50
78028;DHT22;67235;45.638;11.714;2023-05-07T04:53:46;17.10;71.40
78028;DHT22;67235;45.638;11.714;2023-05-07T04:56:13;17.30;71.10
78028;DHT22;67235;45.638;11.714;2023-05-07T04:59:21;17.70;70.50
78028;DHT22;67235;45.638;11.714;2023-05-07T05:01:48;17.90;70.20
78028;DHT22;67235;45.638;11.714;2023-05-07T05:04:14;18.00;70.40
78028;DHT22;67235;45.638;11.714;2023-05-07T05:06:43;17.90;70.40
78028;DHT22;67235;45.638;11.714;2023-05-07T05:09:30;17.90;70.60
78028;DHT22;67235;45.638;11.714;2023-05-07T05:12:00;18.00;70.60
78028;DHT22;67235;45.638;11.714;2023-05-07T05:14:29;18.30;69.20
78028;DHT22;67235;45.638;11.714;2023-05-07T05:16:56;18.20;70.10
78028;DHT22;67235;45.638;11.714;2023-05-07T05:19:33;18.40;70.00
78028;DHT22;67235;45.638;11.714;2023-05-07T05:22:10;18.70;69.90
78028;DHT22;67235;45.638;11.714;2023-05-07T05:24:38;19.00;69.20
78028;DHT22;67235;45.638;11.714;2023-05-07T05:27:06;19.00;69.40
78028;DHT22;67235;45.638;11.714;2023-05-07T05:29:38;18.80;69.60
78028;DHT22;67235;45.638;11.714;2023-05-07T05:32:07;18.60;69.40
78028;DHT22;67235;45.638;11.714;2023-05-07T05:34:44;18.80;69.50
78028;DHT22;67235;45.638;11.714;2023-05-07T05:37:23;18.80;69.60
78028;DHT22;67235;45.638;11.714;2023-05-07T05:42:27;20.10;68.10
78028;DHT22;67235;45.638;11.714;2023-05-07T05:45:00;20.90;66.00
78028;DHT22;67235;45.638;11.714;2023-05-07T05:47:26;21.80;65.10
78028;DHT22;67235;45.638;11.714;2023-05-07T05:49:53;22.30;64.40
78028;DHT22;67235;45.638;11.714;2023-05-07T05:52:19;23.20;62.30
78028;DHT22;67235;45.638;11.714;2023-05-07T05:54:45;23.60;59.70
78028;DHT22;67235;45.638;11.714;2023-05-07T05:57:11;23.80;57.50
78028;DHT22;67235;45.638;11.714;2023-05-07T05:59:53;23.90;57.00
78028;DHT22;67235;45.638;11.714;2023-05-07T06:02:34;23.90;57.20
78028;DHT22;67235;45.638;11.714;2023-05-07T06:07:40;24.60;55.40
78028;DHT22;67235;45.638;11.714;2023-05-07T06:10:31;25.60;51.80
78028;DHT22;67235;45.638;11.714;2023-05-07T06:13:09;26.00;51.30
78028;DHT22;67235;45.638;11.714;2023-05-07T06:15:42;26.60;47.10
78028;DHT22;67235;45.638;11.714;2023-05-07T06:18:44;26.90;47.40
78028;DHT22;67235;45.638;11.714;2023-05-07T06:21:22;26.50;49.00
78028;DHT22;67235;45.638;11.714;2023-05-07T06:23:47;26.30;50.60
78028;DHT22;67235;45.638;11.714;2023-05-07T06:26:33;26.30;50.20
78028;DHT22;67235;45.638;11.714;2023-05-07T06:28:59;26.80;46.60
78028;DHT22;67235;45.638;11.714;2023-05-07T06:31:32;27.10;45.20
78028;DHT22;67235;45.638;11.714;2023-05-07T06:34:11;27.40;44.90
78028;DHT22;67235;45.638;11.714;2023-05-07T06:36:40;27.70;43.60
78028;DHT22;67235;45.638;11.714;2023-05-07T06:39:14;26.70;45.30
78028;DHT22;67235;45.638;11.714;2023-05-07T06:41:47;26.30;47.60
78028;DHT22;67235;45.638;11.714;2023-05-07T06:44:25;26.90;45.40
78028;DHT22;67235;45.638;11.714;2023-05-07T06:47:05;26.10;49.30
78028;DHT22;67235;45.638;11.714;2023-05-07T06:49:42;26.30;48.60
78028;DHT22;67235;45.638;11.714;2023-05-07T06:52:12;27.40;44.10
78028;DHT22;67235;45.638;11.714;2023-05-07T06:54:39;27.60;43.50
78028;DHT22;67235;45.638;11.714;2023-05-07T06:57:10;28.10;42.50
78028;DHT22;67235;45.638;11.714;2023-05-07T06:59:42;28.70;40.30
78028;DHT22;67235;45.638;11.714;2023-05-07T07:02:10;29.50;36.70
78028;DHT22;67235;45.638;11.714;2023-05-07T07:04:44;29.00;39.50
78028;DHT22;67235;45.638;11.714;2023-05-07T07:07:36;29.20;38.50
78028;DHT22;67235;45.638;11.714;2023-05-07T07:12:42;29.30;38.40
78028;DHT22;67235;45.638;11.714;2023-05-07T07:15:11;29.70;37.60
78028;DHT22;67235;45.638;11.714;2023-05-07T07:17:41;29.50;37.50
78028;DHT22;67235;45.638;11.714;2023-05-07T07:20:13;29.00;39.00
78028;DHT22;67235;45.638;11.714;2023-05-07T07:22:43;29.10;37.90
78028;DHT22;67235;45.638;11.714;2023-05-07T07:25:13;29.80;36.30
78028;DHT22;67235;45.638;11.714;2023-05-07T07:27:39;29.70;36.80
78028;DHT22;67235;45.638;11.714;2023-05-07T07:30:11;29.50;38.80
78028;DHT22;67235;45.638;11.714;2023-05-07T07:32:57;30.20;36.70
78028;DHT22;67235;45.638;11.714;2023-05-07T07:38:06;30.90;34.60
78028;DHT22;67235;45.638;11.714;2023-05-07T07:40:36;31.00;34.00
78028;DHT22;67235;45.638;11.714;2023-05-07T07:43:14;31.10;35.80
78028;DHT22;67235;45.638;11.714;2023-05-07T07:45:45;31.70;32.80
78028;DHT22;67235;45.638;11.714;2023-05-07T07:48:12;31.90;33.80
78028;DHT22;67235;45.638;11.714;2023-05-07T07:50:39;31.90;32.60
78028;DHT22;67235;45.638;11.714;2023-05-07T07:53:04;31.60;33.50
78028;DHT22;67235;45.638;11.714;2023-05-07T07:55:42;30.90;35.40
78028;DHT22;67235;45.638;11.714;2023-05-07T07:58:12;29.90;36.70
78028;DHT22;67235;45.638;11.714;2023-05-07T08:00:38;29.40;36.80
78028;DHT22;67235;45.638;11.714;2023-05-07T08:03:09;28.50;37.10
78028;DHT22;67235;45.638;11.714;2023-05-07T08:05:35;27.90;40.20
78028;DHT22;67235;45.638;11.714;2023-05-07T08:08:08;27.60;42.90
78028;DHT22;67235;45.638;11.714;2023-05-07T08:10:35;27.60;41.90
78028;DHT22;67235;45.638;11.714;2023-05-07T08:13:07;27.60;41.80
78028;DHT22;67235;45.638;11.714;2023-05-07T08:15:38;27.50;42.10
78028;DHT22;67235;45.638;11.714;2023-05-07T08:18:04;27.50;43.40
78028;DHT22;67235;45.638;11.714;2023-05-07T08:20:50;27.20;44.90
78028;DHT22;67235;45.638;11.714;2023-05-07T08:23:22;27.10;44.60
78028;DHT22;67235;45.638;11.714;2023-05-07T08:26:16;26.80;44.30
78028;DHT22;67235;45.638;11.714;2023-05-07T08:28:45;26.40;46.20
78028;DHT22;67235;45.638;11.714;2023-05-07T08:34:13;26.50;44.90
78028;DHT22;67235;45.638;11.714;2023-05-07T08:36:41;26.70;45.20
78028;DHT22;67235;45.638;11.714;2023-05-07T08:39:17;26.60;46.10
78028;DHT22;67235;45.638;11.714;2023-05-07T08:41:50;26.70;45.90
78028;DHT22;67235;45.638;11.714;2023-05-07T08:44:28;26.90;45.50
78028;DHT22;67235;45.638;11.714;2023-05-07T08:47:09;27.00;44.00
78028;DHT22;67235;45.638;11.714;2023-05-07T08:57:41;27.40;45.40
78028;DHT22;67235;45.638;11.714;2023-05-07T09:00:07;27.50;44.30
78028;DHT22;67235;45.638;11.714;2023-05-07T09:03:03;27.50;44.30
78028;DHT22;67235;45.638;11.714;2023-05-07T09:05:41;27.10;45.20
78028;DHT22;67235;45.638;11.714;2023-05-07T09:08:15;27.10;44.80
78028;DHT22;67235;45.638;11.714;2023-05-07T09:10:53;26.90;45.80
78028;DHT22;67235;45.638;11.714;2023-05-07T09:13:20;26.90;45.30
78028;DHT22;67235;45.638;11.714;2023-05-07T09:15:57;27.20;45.30
78028;DHT22;67235;45.638;11.714;2023-05-07T09:18:24;27.40;44.70
78028;DHT22;67235;45.638;11.714;2023-05-07T09:20:53;27.50;44.20
78028;DHT22;67235;45.638;11.714;2023-05-07T09:29:37;28.10;43.60
78028;DHT22;67235;45.638;11.714;2023-05-07T09:34:42;28.80;41.30
78028;DHT22;67235;45.638;11.714;2023-05-07T09:37:10;29.20;39.80
78028;DHT22;67235;45.638;11.714;2023-05-07T09:39:43;29.20;39.70
78028;DHT22;67235;45.638;11.714;2023-05-07T09:42:36;29.70;39.10
78028;DHT22;67235;45.638;11.714;2023-05-07T09:45:06;29.50;38.20
78028;DHT22;67235;45.638;11.714;2023-05-07T09:47:38;29.70;38.70
78028;DHT22;67235;45.638;11.714;2023-05-07T09:50:06;29.90;36.80
78028;DHT22;67235;45.638;11.714;2023-05-07T09:52:39;30.40;38.10
78028;DHT22;67235;45.638;11.714;2023-05-07T09:55:29;30.50;37.90
78028;DHT22;67235;45.638;11.714;2023-05-07T09:58:01;30.70;35.50
78028;DHT22;67235;45.638;11.714;2023-05-07T10:00:32;31.20;36.30
78028;DHT22;67235;45.638;11.714;2023-05-07T10:03:06;30.90;35.60
78028;DHT22;67235;45.638;11.714;2023-05-07T10:05:40;30.20;36.30
78028;DHT22;67235;45.638;11.714;2023-05-07T10:08:06;30.60;36.80
78028;DHT22;67235;45.638;11.714;2023-05-07T10:10:34;30.60;36.00
78028;DHT22;67235;45.638;11.714;2023-05-07T10:13:02;30.70;34.80
78028;DHT22;67235;45.638;11.714;2023-05-07T10:15:36;30.90;32.90
78028;DHT22;67235;45.638;11.714;2023-05-07T10:18:06;30.90;33.50
78028;DHT22;67235;45.638;11.714;2023-05-07T10:20:34;30.60;33.40
78028;DHT22;67235;45.638;11.714;2023-05-07T10:23:04;30.70;33.80
78028;DHT22;67235;45.638;11.714;2023-05-07T10:25:31;30.10;32.30
78028;DHT22;67235;45.638;11.714;2023-05-07T10:28:03;30.40;33.90
78028;DHT22;67235;45.638;11.714;2023-05-07T10:33:28;31.10;35.30
78028;DHT22;67235;45.638;11.714;2023-05-07T10:35:59;30.60;32.60
78028;DHT22;67235;45.638;11.714;2023-05-07T10:38:27;31.10;30.60
78028;DHT22;67235;45.638;11.714;2023-05-07T10:40:53;31.20;32.50
78028;DHT22;67235;45.638;11.714;2023-05-07T10:43:19;30.90;33.00
78028;DHT22;67235;45.638;11.714;2023-05-07T10:51:35;29.90;34.20
78028;DHT22;67235;45.638;11.714;2023-05-07T10:56:36;30.50;33.50
78028;DHT22;67235;45.638;11.714;2023-05-07T11:01:56;30.80;33.30
78028;DHT22;67235;45.638;11.714;2023-05-07T11:04:23;30.90;34.40
78028;DHT22;67235;45.638;11.714;2023-05-07T11:09:57;30.30;35.70
78028;DHT22;67235;45.638;11.714;2023-05-07T11:17:29;29.60;34.10
78028;DHT22;67235;45.638;11.714;2023-05-07T11:19:57;29.50;33.10
78028;DHT22;67235;45.638;11.714;2023-05-07T11:25:04;30.00;33.30
78028;DHT22;67235;45.638;11.714;2023-05-07T11:27:31;30.20;31.90
78028;DHT22;67235;45.638;11.714;2023-05-07T11:29:57;30.20;34.00
78028;DHT22;67235;45.638;11.714;2023-05-07T11:32:28;29.60;34.80
78028;DHT22;67235;45.638;11.714;2023-05-07T11:34:55;30.00;32.70
78028;DHT22;67235;45.638;11.714;2023-05-07T11:37:22;30.50;34.20
78028;DHT22;67235;45.638;11.714;2023-05-07T11:39:49;30.50;30.50
78028;DHT22;67235;45.638;11.714;2023-05-07T11:42:30;30.30;33.10
78028;DHT22;67235;45.638;11.714;2023-05-07T11:44:57;30.70;32.80
78028;DHT22;67235;45.638;11.714;2023-05-07T11:47:24;31.00;32.70
78028;DHT22;67235;45.638;11.714;2023-05-07T11:49:54;31.30;32.50
78028;DHT22;67235;45.638;11.714;2023-05-07T11:52:22;31.60;30.40
78028;DHT22;67235;45.638;11.714;2023-05-07T11:54:52;31.80;30.40
78028;DHT22;67235;45.638;11.714;2023-05-07T11:57:18;31.90;30.50
78028;DHT22;67235;45.638;11.714;2023-05-07T11:59:44;32.10;29.90
78028;DHT22;67235;45.638;11.714;2023-05-07T12:02:10;31.80;30.20
78028;DHT22;67235;45.638;11.714;2023-05-07T12:04:38;31.50;32.20
78028;DHT22;67235;45.638;11.714;2023-05-07T12:07:03;31.40;32.70
78028;DHT22;67235;45.638;11.714;2023-05-07T12:09:32;31.40;29.10
78028;DHT22;67235;45.638;11.714;2023-05-07T12:12:05;31.10;33.50
78028;DHT22;67235;45.638;11.714;2023-05-07T12:14:31;31.10;31.90
78028;DHT22;67235;45.638;11.714;2023-05-07T12:17:00;31.00;30.70
78028;DHT22;67235;45.638;11.714;2023-05-07T12:19:29;31.60;32.00
78028;DHT22;67235;45.638;11.714;2023-05-07T12:21:56;31.40;32.90
78028;DHT22;67235;45.638;11.714;2023-05-07T12:24:22;31.50;31.50
78028;DHT22;67235;45.638;11.714;2023-05-07T12:26:48;31.30;32.80
78028;DHT22;67235;45.638;11.714;2023-05-07T12:29:15;31.40;34.60
78028;DHT22;67235;45.638;11.714;2023-05-07T12:31:41;31.60;34.70
78028;DHT22;67235;45.638;11.714;2023-05-07T12:34:07;31.30;33.40
78028;DHT22;67235;45.638;11.714;2023-05-07T12:36:40;31.00;32.30
78028;DHT22;67235;45.638;11.714;2023-05-07T12:39:07;30.70;34.00
78028;DHT22;67235;45.638;11.714;2023-05-07T12:41:55;30.00;35.10
78028;DHT22;67235;45.638;11.714;2023-05-07T12:44:29;30.30;37.70
78028;DHT22;67235;45.638;11.714;2023-05-07T12:46:55;30.60;35.60
78028;DHT22;67235;45.638;11.714;2023-05-07T12:49:22;30.90;35.30
78028;DHT22;67235;45.638;11.714;2023-05-07T12:51:48;31.00;34.20
78028;DHT22;67235;45.638;11.714;2023-05-07T12:54:31;31.30;33.30
78028;DHT22;67235;45.638;11.714;2023-05-07T12:57:08;31.20;36.60
78028;DHT22;67235;45.638;11.714;2023-05-07T12:59:39;30.10;31.40
78028;DHT22;67235;45.638;11.714;2023-05-07T13:02:06;30.30;33.00
78028;DHT22;67235;45.638;11.714;2023-05-07T13:04:33;30.20;33.90
78028;DHT22;67235;45.638;11.714;2023-05-07T13:06:59;30.80;33.90
78028;DHT22;67235;45.638;11.714;2023-05-07T13:09:25;30.90;33.80
78028;DHT22;67235;45.638;11.714;2023-05-07T13:11:51;31.30;33.80
78028;DHT22;67235;45.638;11.714;2023-05-07T13:14:17;31.20;33.50
78028;DHT22;67235;45.638;11.714;2023-05-07T13:16:43;31.20;34.90
78028;DHT22;67235;45.638;11.714;2023-05-07T13:19:09;31.40;33.70
78028;DHT22;67235;45.638;11.714;2023-05-07T13:21:35;30.90;32.90
78028;DHT22;67235;45.638;11.714;2023-05-07T13:24:01;30.10;36.80
78028;DHT22;67235;45.638;11.714;2023-05-07T13:26:27;30.20;34.60
78028;DHT22;67235;45.638;11.714;2023-05-07T13:28:53;30.30;33.50
78028;DHT22;67235;45.638;11.714;2023-05-07T13:31:20;30.20;36.50
78028;DHT22;67235;45.638;11.714;2023-05-07T13:33:46;30.00;34.50
78028;DHT22;67235;45.638;11.714;2023-05-07T13:36:12;29.70;36.00
78028;DHT22;67235;45.638;11.714;2023-05-07T13:38:39;29.70;36.20
78028;DHT22;67235;45.638;11.714;2023-05-07T13:41:05;29.60;35.10
78028;DHT22;67235;45.638;11.714;2023-05-07T13:43:31;29.60;36.30
78028;DHT22;67235;45.638;11.714;2023-05-07T13:45:59;29.50;33.30
78028;DHT22;67235;45.638;11.714;2023-05-07T13:48:26;29.40;36.00
78028;DHT22;67235;45.638;11.714;2023-05-07T13:50:51;29.10;35.40
78028;DHT22;67235;45.638;11.714;2023-05-07T13:53:18;29.20;37.40
78028;DHT22;67235;45.638;11.714;2023-05-07T13:55:44;29.50;36.60
78028;DHT22;67235;45.638;11.714;2023-05-07T13:58:10;29.40;40.80
78028;DHT22;67235;45.638;11.714;2023-05-07T14:00:36;29.10;37.10
78028;DHT22;67235;45.638;11.714;2023-05-07T14:03:04;29.20;35.80
78028;DHT22;67235;45.638;11.714;2023-05-07T14:05:30;29.10;38.60
78028;DHT22;67235;45.638;11.714;2023-05-07T14:07:57;28.80;37.10
78028;DHT22;67235;45.638;11.714;2023-05-07T14:10:23;28.50;38.30
78028;DHT22;67235;45.638;11.714;2023-05-07T14:12:49;28.50;35.00
78028;DHT22;67235;45.638;11.714;2023-05-07T14:15:15;28.80;37.50
78028;DHT22;67235;45.638;11.714;2023-05-07T14:17:42;28.60;37.50
78028;DHT22;67235;45.638;11.714;2023-05-07T14:20:08;28.20;38.80
78028;DHT22;67235;45.638;11.714;2023-05-07T14:22:36;28.20;35.20
78028;DHT22;67235;45.638;11.714;2023-05-07T14:25:02;28.50;38.20
78028;DHT22;67235;45.638;11.714;2023-05-07T14:27:28;28.50;35.10
78028;DHT22;67235;45.638;11.714;2023-05-07T14:29:54;28.50;37.20
78028;DHT22;67235;45.638;11.714;2023-05-07T14:32:20;28.70;38.30
78028;DHT22;67235;45.638;11.714;2023-05-07T14:34:47;28.70;35.90
78028;DHT22;67235;45.638;11.714;2023-05-07T14:37:13;29.10;37.20
78028;DHT22;67235;45.638;11.714;2023-05-07T14:39:39;29.20;36.30
78028;DHT22;67235;45.638;11.714;2023-05-07T14:42:05;29.10;34.50
78028;DHT22;67235;45.638;11.714;2023-05-07T14:44:34;29.10;35.10
78028;DHT22;67235;45.638;11.714;2023-05-07T14:47:00;29.20;34.90
78028;DHT22;67235;45.638;11.714;2023-05-07T14:49:26;29.40;36.40
78028;DHT22;67235;45.638;11.714;2023-05-07T14:51:51;29.40;38.40
78028;DHT22;67235;45.638;11.714;2023-05-07T14:54:17;29.00;37.10
78028;DHT22;67235;45.638;11.714;2023-05-07T14:56:43;28.60;43.30
78028;DHT22;67235;45.638;11.714;2023-05-07T14:59:09;28.40;37.10
78028;DHT22;67235;45.638;11.714;2023-05-07T15:01:37;28.30;41.90
78028;DHT22;67235;45.638;11.714;2023-05-07T15:04:04;28.30;37.10
78028;DHT22;67235;45.638;11.714;2023-05-07T15:06:30;28.10;40.60
78028;DHT22;67235;45.638;11.714;2023-05-07T15:08:56;27.90;38.20
78028;DHT22;67235;45.638;11.714;2023-05-07T15:11:22;28.10;39.10
78028;DHT22;67235;45.638;11.714;2023-05-07T15:13:49;28.20;43.20
78028;DHT22;67235;45.638;11.714;2023-05-07T15:16:15;28.00;37.20
78028;DHT22;67235;45.638;11.714;2023-05-07T15:18:42;27.90;37.70
78028;DHT22;67235;45.638;11.714;2023-05-07T15:21:07;27.70;41.30
78028;DHT22;67235;45.638;11.714;2023-05-07T15:23:33;27.60;37.90
78028;DHT22;67235;45.638;11.714;2023-05-07T15:25:59;27.80;41.00
78028;DHT22;67235;45.638;11.714;2023-05-07T15:28:26;28.10;40.80
78028;DHT22;67235;45.638;11.714;2023-05-07T15:30:56;28.20;39.50
78028;DHT22;67235;45.638;11.714;2023-05-07T15:33:25;28.20;39.60
78028;DHT22;67235;45.638;11.714;2023-05-07T15:35:51;28.00;41.20
78028;DHT22;67235;45.638;11.714;2023-05-07T15:38:17;27.90;41.50
78028;DHT22;67235;45.638;11.714;2023-05-07T15:40:42;27.70;40.50
78028;DHT22;67235;45.638;11.714;2023-05-07T15:43:09;27.60;41.40
78028;DHT22;67235;45.638;11.714;2023-05-07T15:45:40;27.40;45.10
78028;DHT22;67235;45.638;11.714;2023-05-07T15:48:09;27.30;43.30
78028;DHT22;67235;45.638;11.714;2023-05-07T15:50:35;27.40;47.80
78028;DHT22;67235;45.638;11.714;2023-05-07T15:53:02;27.40;44.10
78028;DHT22;67235;45.638;11.714;2023-05-07T15:55:30;27.50;45.50
78028;DHT22;67235;45.638;11.714;2023-05-07T15:57:57;27.60;42.00
78028;DHT22;67235;45.638;11.714;2023-05-07T16:00:25;27.60;43.80
78028;DHT22;67235;45.638;11.714;2023-05-07T16:02:53;27.50;44.40
78028;DHT22;67235;45.638;11.714;2023-05-07T16:05:19;27.60;43.80
78028;DHT22;67235;45.638;11.714;2023-05-07T16:07:45;27.30;45.80
78028;DHT22;67235;45.638;11.714;2023-05-07T16:10:12;27.00;44.20
78028;DHT22;67235;45.638;11.714;2023-05-07T16:12:38;26.90;44.90
78028;DHT22;67235;45.638;11.714;2023-05-07T16:15:05;26.70;44.90
78028;DHT22;67235;45.638;11.714;2023-05-07T16:17:31;26.50;45.90
78028;DHT22;67235;45.638;11.714;2023-05-07T16:19:56;26.40;46.50
78028;DHT22;67235;45.638;11.714;2023-05-07T16:22:23;26.20;49.30
78028;DHT22;67235;45.638;11.714;2023-05-07T16:24:50;26.10;49.00
78028;DHT22;67235;45.638;11.714;2023-05-07T16:27:16;26.10;48.40
78028;DHT22;67235;45.638;11.714;2023-05-07T16:29:45;25.90;48.90
78028;DHT22;67235;45.638;11.714;2023-05-07T16:32:11;25.90;47.90
78028;DHT22;67235;45.638;11.714;2023-05-07T16:34:40;25.80;48.60